createdAt,value
2023-09-20T00:01:10.115Z,2.15
2023-09-20T00:03:36.808Z,1.88
2023-09-20T00:06:10.685Z,2.13
2023-09-20T00:08:38.023Z,1.83
2023-09-20T00:11:06.326Z,2.30
2023-09-20T00:13:34.031Z,2.00
2023-09-20T00:16:01.882Z,1.98
2023-09-20T00:18:31.395Z,2.08
2023-09-20T00:21:02.667Z,2.08
2023-09-20T00:25:56.476Z,1.58
2023-09-20T00:28:23.979Z,1.67
2023-09-20T00:30:50.530Z,2.08
2023-09-20T00:33:17.198Z,1.98
2023-09-20T00:35:44.119Z,1.80
2023-09-20T00:38:10.755Z,2.30
2023-09-20T00:40:38.548Z,1.70
2023-09-20T00:43:08.912Z,2.10
2023-09-20T00:45:37.829Z,1.75
2023-09-20T00:48:06.880Z,2.10
2023-09-20T00:50:36.884Z,2.10
2023-09-20T00:53:07.447Z,1.80
2023-09-20T00:55:36.362Z,1.88
2023-09-20T00:58:08.852Z,2.00
2023-09-20T01:00:38.858Z,2.10
2023-09-20T01:03:05.755Z,2.40
2023-09-20T01:05:38.054Z,2.17
2023-09-20T01:08:07.269Z,2.03
2023-09-20T01:10:37.723Z,2.20
2023-09-20T01:13:10.428Z,2.35
2023-09-20T01:15:38.470Z,2.10
2023-09-20T01:18:06.151Z,2.17
2023-09-20T01:20:34.397Z,2.10
2023-09-20T01:23:02.005Z,2.13
2023-09-20T01:25:31.045Z,1.98
2023-09-20T01:27:59.321Z,1.75
2023-09-20T01:30:27.841Z,2.25
2023-09-20T01:32:55.839Z,1.95
2023-09-20T01:35:24.940Z,2.15
2023-09-20T01:37:52.223Z,2.13
2023-09-20T01:40:21.056Z,1.90
2023-09-20T01:42:49.184Z,2.33
2023-09-20T01:45:21.337Z,2.05
2023-09-20T01:47:52.919Z,2.63
2023-09-20T01:50:26.737Z,2.20
2023-09-20T01:52:55.297Z,2.20
2023-09-20T01:55:23.473Z,2.10
2023-09-20T01:57:52.011Z,2.35
2023-09-20T02:00:23.484Z,1.90
2023-09-20T02:02:52.108Z,2.30
2023-09-20T02:05:19.268Z,2.50
2023-09-20T02:07:46.959Z,2.58
2023-09-20T02:10:15.151Z,2.35
2023-09-20T02:12:46.953Z,2.40
2023-09-20T02:15:14.911Z,2.33
2023-09-20T02:17:42.670Z,3.08
2023-09-20T02:20:13.635Z,2.17
2023-09-20T02:22:40.844Z,2.28
2023-09-20T02:25:13.830Z,2.25
2023-09-20T02:27:44.678Z,2.78
2023-09-20T02:30:15.837Z,2.50
2023-09-20T02:32:45.679Z,2.72
2023-09-20T02:35:12.367Z,2.28
2023-09-20T02:37:41.750Z,2.38
2023-09-20T02:40:08.715Z,1.90
2023-09-20T02:42:46.268Z,2.42
2023-09-20T02:45:22.049Z,2.30
2023-09-20T02:47:49.084Z,2.35
2023-09-20T02:50:18.246Z,2.05
2023-09-20T02:52:46.763Z,2.45
2023-09-20T02:55:14.897Z,2.00
2023-09-20T02:57:42.661Z,2.40
2023-09-20T03:00:17.946Z,2.35
2023-09-20T03:02:50.589Z,1.98
2023-09-20T03:05:20.027Z,2.05
2023-09-20T03:07:48.162Z,2.50
2023-09-20T03:10:16.030Z,2.20
2023-09-20T03:12:45.116Z,2.50
2023-09-20T03:15:13.697Z,2.30
2023-09-20T03:17:41.070Z,2.30
2023-09-20T03:20:17.508Z,2.47
2023-09-20T03:22:46.018Z,2.20
2023-09-20T03:25:15.456Z,2.63
2023-09-20T03:27:44.070Z,1.45
2023-09-20T03:30:14.405Z,2.63
2023-09-20T03:32:50.973Z,2.20
2023-09-20T03:35:21.188Z,2.08
2023-09-20T03:37:48.549Z,2.05
2023-09-20T03:40:23.811Z,2.50
2023-09-20T03:42:53.189Z,2.40
2023-09-20T03:45:22.496Z,2.35
2023-09-20T03:47:55.000Z,2.55
2023-09-20T03:50:23.714Z,2.08
2023-09-20T03:52:50.726Z,2.47
2023-09-20T03:55:18.348Z,2.40
2023-09-20T03:57:46.218Z,1.98
2023-09-20T04:00:15.951Z,2.38
2023-09-20T04:02:43.819Z,1.88
2023-09-20T04:05:30.480Z,2.53
2023-09-20T04:08:07.238Z,2.17
2023-09-20T04:10:34.926Z,2.28
2023-09-20T04:13:02.238Z,2.35
2023-09-20T04:15:30.553Z,2.20
2023-09-20T04:17:57.206Z,2.10
2023-09-20T04:20:24.802Z,2.10
2023-09-20T04:22:51.578Z,2.47
2023-09-20T04:25:18.981Z,2.20
2023-09-20T04:27:47.688Z,2.10
2023-09-20T04:30:15.736Z,2.53
2023-09-20T04:32:44.640Z,2.20
2023-09-20T04:35:31.867Z,2.15
2023-09-20T04:37:59.077Z,2.13
2023-09-20T04:40:26.362Z,2.35
2023-09-20T04:42:53.026Z,2.38
2023-09-20T04:45:20.925Z,2.65
2023-09-20T04:47:47.669Z,2.47
2023-09-20T04:50:14.957Z,2.42
2023-09-20T04:52:42.623Z,2.28
2023-09-20T04:55:11.564Z,2.22
2023-09-20T04:57:38.430Z,2.38
2023-09-20T05:00:10.081Z,2.55
2023-09-20T05:02:37.231Z,2.65
2023-09-20T05:05:06.136Z,2.28
2023-09-20T05:07:35.209Z,2.63
2023-09-20T05:10:03.237Z,2.22
2023-09-20T05:12:30.935Z,2.50
2023-09-20T05:14:58.411Z,2.78
2023-09-20T05:17:25.227Z,2.75
2023-09-20T05:19:51.881Z,2.60
2023-09-20T05:22:19.184Z,2.60
2023-09-20T05:24:46.004Z,2.80
2023-09-20T05:27:12.636Z,2.95
2023-09-20T05:29:39.253Z,3.10
2023-09-20T05:32:06.875Z,2.90
2023-09-20T05:34:36.079Z,3.05
2023-09-20T05:37:02.726Z,2.83
2023-09-20T05:39:31.002Z,3.40
2023-09-20T05:41:59.449Z,2.72
2023-09-20T05:44:27.027Z,2.60
2023-09-20T05:46:53.989Z,2.72
2023-09-20T05:49:22.962Z,2.60
2023-09-20T05:51:51.557Z,3.08
2023-09-20T05:54:20.818Z,2.95
2023-09-20T05:56:47.443Z,2.70
2023-09-20T05:59:14.377Z,3.25
2023-09-20T06:01:41.427Z,2.97
2023-09-20T06:04:10.936Z,2.60
2023-09-20T06:06:38.620Z,3.10
2023-09-20T06:09:05.926Z,3.08
2023-09-20T06:11:32.852Z,2.72
2023-09-20T06:13:59.406Z,2.97
2023-09-20T06:16:26.035Z,2.75
2023-09-20T06:19:05.153Z,2.97
2023-09-20T06:21:33.184Z,3.20
2023-09-20T06:24:00.182Z,3.15
2023-09-20T06:26:27.404Z,2.95
2023-09-20T06:28:54.160Z,2.67
2023-09-20T06:31:20.821Z,2.97
2023-09-20T06:33:51.289Z,3.17
2023-09-20T06:36:19.088Z,2.90
2023-09-20T06:38:46.059Z,3.15
2023-09-20T06:41:13.178Z,2.97
2023-09-20T06:43:39.894Z,2.72
2023-09-20T06:46:09.719Z,2.88
2023-09-20T06:48:38.283Z,2.97
2023-09-20T06:51:04.988Z,2.97
2023-09-20T06:53:31.933Z,2.50
2023-09-20T06:56:01.492Z,2.65
2023-09-20T06:58:29.906Z,2.65
2023-09-20T07:00:56.697Z,2.67
2023-09-20T07:03:23.976Z,2.40
2023-09-20T07:05:52.356Z,2.58
2023-09-20T07:08:20.873Z,2.63
2023-09-20T07:10:47.504Z,2.55
2023-09-20T07:13:17.185Z,2.60
2023-09-20T07:15:43.986Z,2.45
2023-09-20T07:18:14.362Z,2.80
2023-09-20T07:20:44.164Z,2.67
2023-09-20T07:23:12.221Z,2.72
2023-09-20T07:25:39.451Z,2.30
2023-09-20T07:28:07.265Z,2.60
2023-09-20T07:30:41.503Z,2.63
2023-09-20T07:33:13.259Z,2.35
2023-09-20T07:35:48.254Z,2.22
2023-09-20T07:38:28.545Z,2.90
2023-09-20T07:41:19.378Z,2.83
2023-09-20T07:43:46.595Z,2.38
2023-09-20T07:46:14.917Z,2.60
2023-09-20T07:48:54.024Z,2.92
2023-09-20T07:51:25.986Z,2.17
2023-09-20T07:53:57.290Z,2.20
2023-09-20T07:56:25.053Z,2.20
2023-09-20T07:58:54.609Z,2.67
2023-09-20T08:01:21.499Z,2.30
2023-09-20T08:03:53.240Z,2.13
2023-09-20T08:06:34.884Z,2.63
2023-09-20T08:09:03.171Z,2.45
2023-09-20T08:11:30.251Z,2.17
2023-09-20T08:13:59.448Z,2.55
2023-09-20T08:16:38.661Z,2.13
2023-09-20T08:19:16.467Z,2.15
2023-09-20T08:21:45.101Z,2.58
2023-09-20T08:24:30.589Z,2.35
2023-09-20T08:27:15.808Z,2.17
2023-09-20T08:30:01.313Z,2.50
2023-09-20T08:32:46.924Z,2.30
2023-09-20T08:35:32.653Z,2.13
2023-09-20T08:38:17.621Z,2.20
2023-09-20T08:41:03.291Z,2.63
2023-09-20T08:43:48.988Z,2.70
2023-09-20T08:46:37.568Z,2.08
2023-09-20T08:49:26.004Z,2.67
2023-09-20T08:52:29.114Z,1.90
2023-09-20T08:55:20.942Z,2.15
2023-09-20T08:58:06.864Z,2.33
2023-09-20T09:00:33.828Z,2.33
2023-09-20T09:03:06.096Z,1.90
2023-09-20T09:05:33.535Z,1.90
2023-09-20T09:08:02.719Z,2.28
2023-09-20T09:10:30.610Z,2.13
2023-09-20T09:12:57.531Z,1.90
2023-09-20T09:15:25.835Z,2.10
2023-09-20T09:17:52.761Z,2.00
2023-09-20T09:20:21.285Z,1.65
2023-09-20T09:22:49.260Z,1.70
2023-09-20T09:25:18.774Z,1.92
2023-09-20T09:27:45.479Z,2.10
2023-09-20T09:30:14.041Z,1.80
2023-09-20T09:32:43.129Z,1.73
2023-09-20T09:35:10.464Z,2.00
2023-09-20T09:37:37.798Z,1.70
2023-09-20T09:40:06.942Z,1.80
2023-09-20T09:42:34.059Z,1.80
2023-09-20T09:45:02.613Z,2.03
2023-09-20T09:47:31.037Z,2.10
2023-09-20T09:50:00.613Z,2.13
2023-09-20T09:52:27.545Z,2.17
2023-09-20T09:54:55.303Z,1.80
2023-09-20T09:57:22.950Z,1.40
2023-09-20T09:59:51.107Z,1.45
2023-09-20T10:02:22.509Z,1.33
2023-09-20T10:05:02.149Z,1.85
2023-09-20T10:07:32.250Z,1.40
2023-09-20T10:10:09.879Z,1.58
2023-09-20T10:12:40.882Z,2.15
2023-09-20T10:15:08.743Z,1.80
2023-09-20T10:17:36.138Z,1.90
2023-09-20T10:20:09.080Z,1.52
2023-09-20T10:22:42.468Z,2.00
2023-09-20T10:25:28.948Z,1.80
2023-09-20T10:27:55.878Z,1.80
2023-09-20T10:30:22.549Z,2.00
2023-09-20T10:32:49.283Z,3.50
2023-09-20T10:35:31.077Z,1.73
2023-09-20T10:38:10.146Z,1.40
2023-09-20T10:40:50.185Z,1.30
2023-09-20T10:43:19.282Z,1.40
2023-09-20T10:45:53.275Z,1.10
2023-09-20T10:48:23.670Z,1.20
2023-09-20T10:50:51.931Z,1.38
2023-09-20T10:53:20.535Z,1.10
2023-09-20T10:55:47.389Z,1.20
2023-09-20T10:58:16.139Z,1.23
2023-09-20T11:00:42.819Z,1.60
2023-09-20T11:03:10.058Z,1.30
2023-09-20T11:05:37.267Z,1.40
2023-09-20T11:08:08.094Z,1.30
2023-09-20T11:10:36.008Z,1.60
2023-09-20T11:13:10.878Z,1.17
2023-09-20T11:15:44.885Z,1.30
2023-09-20T11:18:16.194Z,1.33
2023-09-20T11:20:43.578Z,1.25
2023-09-20T11:23:10.828Z,1.40
2023-09-20T11:25:37.721Z,1.20
2023-09-20T11:28:09.140Z,1.58
2023-09-20T11:30:36.176Z,1.20
2023-09-20T11:33:03.395Z,1.40
2023-09-20T11:35:34.914Z,1.10
2023-09-20T11:38:04.773Z,1.33
2023-09-20T11:40:33.105Z,1.30
2023-09-20T11:42:59.677Z,1.20
2023-09-20T11:45:48.692Z,1.00
2023-09-20T11:48:14.932Z,1.20
2023-09-20T11:50:45.882Z,1.30
2023-09-20T11:53:16.474Z,0.93
2023-09-20T11:55:43.980Z,1.20
2023-09-20T11:58:15.157Z,0.95
2023-09-20T12:03:10.745Z,1.27
2023-09-20T12:05:37.520Z,1.20
2023-09-20T12:08:07.642Z,1.05
2023-09-20T12:10:34.313Z,1.20
2023-09-20T12:13:00.937Z,1.50
2023-09-20T12:15:27.638Z,1.30
2023-09-20T12:17:56.677Z,1.50
2023-09-20T12:20:27.959Z,1.45
2023-09-20T12:22:57.159Z,1.40
2023-09-20T12:25:23.757Z,3.83
2023-09-20T12:27:50.377Z,2.80
2023-09-20T12:30:18.799Z,2.85
2023-09-20T12:32:45.484Z,1.25
2023-09-20T12:35:12.458Z,1.40
2023-09-20T12:37:39.155Z,1.40
2023-09-20T12:40:09.969Z,1.20
2023-09-20T12:42:40.447Z,1.30
2023-09-20T12:45:09.005Z,1.40
2023-09-20T12:47:36.880Z,1.20
2023-09-20T12:50:04.480Z,1.15
2023-09-20T12:52:31.451Z,1.60
2023-09-20T12:54:58.362Z,1.45
2023-09-20T12:57:26.392Z,1.45
2023-09-20T12:59:53.573Z,1.13
2023-09-20T13:02:20.521Z,1.77
2023-09-20T13:04:47.441Z,1.55
2023-09-20T13:07:14.208Z,1.23
2023-09-20T13:09:41.094Z,1.23
2023-09-20T13:12:09.156Z,1.42
2023-09-20T13:14:36.406Z,1.50
2023-09-20T13:17:03.236Z,1.40
2023-09-20T13:19:30.038Z,1.52
2023-09-20T13:22:03.246Z,1.20
2023-09-20T13:24:32.411Z,1.48
2023-09-20T13:26:59.293Z,1.58
2023-09-20T13:29:29.139Z,1.20
2023-09-20T13:31:55.727Z,1.33
2023-09-20T13:34:23.340Z,1.88
2023-09-20T13:36:49.968Z,1.33
2023-09-20T13:39:19.558Z,2.03
2023-09-20T13:41:46.807Z,1.40
2023-09-20T13:44:13.386Z,1.50
2023-09-20T13:46:40.778Z,1.52
2023-09-20T13:49:08.158Z,1.70
2023-09-20T13:51:35.112Z,1.50
2023-09-20T13:54:01.656Z,1.20
2023-09-20T13:56:29.288Z,1.35
2023-09-20T13:58:56.163Z,1.70
2023-09-20T14:01:22.975Z,1.63
2023-09-20T14:03:49.657Z,1.42
2023-09-20T14:06:17.910Z,1.88
2023-09-20T14:08:45.675Z,1.45
2023-09-20T14:11:14.814Z,1.50
2023-09-20T14:13:41.723Z,1.60
2023-09-20T14:16:11.765Z,2.67
2023-09-20T14:18:38.411Z,1.30
2023-09-20T14:21:06.720Z,1.63
2023-09-20T14:23:34.479Z,1.70
2023-09-20T14:26:01.466Z,1.52
2023-09-20T14:28:28.291Z,2.13
2023-09-20T14:30:54.877Z,1.77
2023-09-20T14:33:22.823Z,1.40
2023-09-20T14:35:50.679Z,1.35
2023-09-20T14:38:17.577Z,1.75
2023-09-20T14:40:44.439Z,1.35
2023-09-20T14:43:12.313Z,1.50
2023-09-20T14:45:38.906Z,1.52
2023-09-20T14:48:05.930Z,1.45
2023-09-20T14:50:35.129Z,1.58
2023-09-20T14:53:03.286Z,1.60
2023-09-20T14:55:30.864Z,1.58
2023-09-20T14:57:58.370Z,1.38
2023-09-20T15:00:25.865Z,1.40
2023-09-20T15:02:55.135Z,1.75
2023-09-20T15:05:22.267Z,1.50
2023-09-20T15:07:55.475Z,1.60
2023-09-20T15:10:23.939Z,1.80
2023-09-20T15:12:58.704Z,1.40
2023-09-20T15:15:26.476Z,1.70
2023-09-20T15:17:53.212Z,1.90
2023-09-20T15:20:20.304Z,1.55
2023-09-20T15:22:47.278Z,1.60
2023-09-20T15:25:16.041Z,1.70
2023-09-20T15:27:45.307Z,1.85
2023-09-20T15:30:13.667Z,1.63
2023-09-20T15:32:41.307Z,1.48
2023-09-20T15:35:10.676Z,1.60
2023-09-20T15:37:46.008Z,1.42
2023-09-20T15:40:16.710Z,1.70
2023-09-20T15:42:45.950Z,1.90
2023-09-20T15:45:18.330Z,1.92
2023-09-20T15:47:45.236Z,1.88
2023-09-20T15:50:11.796Z,1.90
2023-09-20T15:52:40.939Z,1.38
2023-09-20T15:55:15.736Z,1.42
2023-09-20T15:57:42.453Z,1.70
2023-09-20T16:00:14.065Z,1.50
2023-09-20T16:02:41.606Z,1.70
2023-09-20T16:05:10.477Z,1.70
2023-09-20T16:07:39.338Z,1.60
2023-09-20T16:10:08.346Z,1.75
2023-09-20T16:12:34.973Z,1.30
2023-09-20T16:15:01.694Z,1.65
2023-09-20T16:17:29.219Z,1.60
2023-09-20T16:19:55.809Z,1.67
2023-09-20T16:22:24.319Z,1.58
2023-09-20T16:24:51.333Z,1.58
2023-09-20T16:27:17.886Z,1.35
2023-09-20T16:29:44.659Z,1.50
2023-09-20T16:32:11.443Z,1.42
2023-09-20T16:34:37.996Z,1.55
2023-09-20T16:37:04.583Z,1.73
2023-09-20T16:39:32.054Z,1.60
2023-09-20T16:42:01.230Z,1.80
2023-09-20T16:44:28.136Z,1.38
2023-09-20T16:46:55.212Z,1.50
2023-09-20T16:49:23.058Z,1.92
2023-09-20T16:51:49.658Z,1.90
2023-09-20T16:54:16.949Z,1.77
2023-09-20T16:56:44.511Z,1.45
2023-09-20T16:59:11.642Z,1.73
2023-09-20T17:01:38.221Z,1.63
2023-09-20T17:04:06.195Z,1.58
2023-09-20T17:06:32.906Z,1.67
2023-09-20T17:08:59.826Z,1.58
2023-09-20T17:11:27.460Z,1.80
2023-09-20T17:13:54.046Z,1.90
2023-09-20T17:16:20.790Z,1.73
2023-09-20T17:18:48.127Z,1.80
2023-09-20T17:21:15.588Z,2.00
2023-09-20T17:23:42.722Z,1.63
2023-09-20T17:26:10.927Z,1.63
2023-09-20T17:28:37.754Z,1.70
2023-09-20T17:31:06.073Z,1.65
2023-09-20T17:33:33.085Z,1.85
2023-09-20T17:36:04.707Z,1.40
2023-09-20T17:38:31.551Z,1.63
2023-09-20T17:41:01.055Z,1.90
2023-09-20T17:43:28.115Z,1.63
2023-09-20T17:45:54.716Z,1.73
2023-09-20T17:48:21.340Z,1.48
2023-09-20T17:50:48.183Z,1.80
2023-09-20T17:53:15.560Z,1.70
2023-09-20T17:55:43.126Z,1.77
2023-09-20T17:58:10.662Z,1.40
2023-09-20T18:00:37.415Z,1.45
2023-09-20T18:03:04.427Z,1.35
2023-09-20T18:05:33.454Z,1.38
2023-09-20T18:08:02.230Z,1.50
2023-09-20T18:10:29.016Z,1.70
2023-09-20T18:12:55.723Z,1.70
2023-09-20T18:15:22.649Z,1.85
2023-09-20T18:17:49.614Z,1.30
2023-09-20T18:20:16.381Z,1.63
2023-09-20T18:22:42.976Z,1.65
2023-09-20T18:25:12.618Z,1.80
2023-09-20T18:27:39.778Z,1.83
2023-09-20T18:30:11.846Z,1.83
2023-09-20T18:32:38.827Z,1.70
2023-09-20T18:35:07.089Z,1.90
2023-09-20T18:37:33.722Z,2.33
2023-09-20T18:40:01.277Z,2.05
2023-09-20T18:42:28.707Z,1.88
2023-09-20T18:44:55.513Z,1.65
2023-09-20T18:47:33.483Z,1.77
2023-09-20T18:50:09.591Z,2.33
2023-09-20T18:52:36.242Z,1.90
2023-09-20T18:55:02.869Z,1.75
2023-09-20T18:57:29.364Z,1.70
2023-09-20T18:59:57.725Z,1.77
2023-09-20T19:02:24.927Z,2.00
2023-09-20T19:04:55.052Z,1.88
2023-09-20T19:07:23.588Z,1.70
2023-09-20T19:09:55.560Z,1.80
2023-09-20T19:12:25.560Z,1.83
2023-09-20T19:14:53.827Z,1.98
2023-09-20T19:17:20.482Z,2.13
2023-09-20T19:19:47.057Z,1.77
2023-09-20T19:22:14.808Z,1.73
2023-09-20T19:24:43.668Z,2.17
2023-09-20T19:27:11.515Z,2.40
2023-09-20T19:29:38.950Z,2.08
2023-09-20T19:32:05.641Z,2.10
2023-09-20T19:34:34.346Z,2.00
2023-09-20T19:37:01.640Z,2.03
2023-09-20T19:39:29.735Z,2.15
2023-09-20T19:41:57.773Z,2.10
2023-09-20T19:44:24.381Z,2.58
2023-09-20T19:46:51.525Z,1.80
2023-09-20T19:49:18.729Z,2.35
2023-09-20T19:51:45.866Z,2.40
2023-09-20T19:54:15.077Z,2.15
2023-09-20T19:56:43.554Z,1.90
2023-09-20T19:59:12.678Z,1.80
2023-09-20T20:01:40.491Z,1.80
2023-09-20T20:04:09.489Z,2.33
2023-09-20T20:06:37.378Z,2.22
2023-09-20T20:09:07.932Z,2.15
2023-09-20T20:11:34.559Z,1.73
2023-09-20T20:14:01.976Z,2.10
2023-09-20T20:16:30.171Z,2.00
2023-09-20T20:18:57.817Z,2.40
2023-09-20T20:21:25.945Z,2.25
2023-09-20T20:23:54.939Z,2.22
2023-09-20T20:26:22.804Z,2.20
2023-09-20T20:28:51.236Z,2.30
2023-09-20T20:31:21.084Z,2.15
2023-09-20T20:33:47.967Z,1.98
2023-09-20T20:36:15.296Z,2.50
2023-09-20T20:38:42.417Z,2.25
2023-09-20T20:41:09.863Z,1.75
2023-09-20T20:43:37.996Z,1.90
2023-09-20T20:46:13.342Z,2.25
2023-09-20T20:48:41.054Z,2.13
2023-09-20T20:51:13.784Z,2.08
2023-09-20T20:53:47.305Z,2.05
2023-09-20T20:56:18.254Z,2.20
2023-09-20T20:58:47.687Z,1.98
2023-09-20T21:01:14.865Z,2.45
2023-09-20T21:03:42.354Z,2.30
2023-09-20T21:06:10.810Z,2.03
2023-09-20T21:08:38.628Z,2.20
2023-09-20T21:11:08.846Z,1.98
2023-09-20T21:13:38.824Z,2.50
2023-09-20T21:16:05.693Z,2.15
2023-09-20T21:18:32.456Z,2.40
2023-09-20T21:21:04.714Z,1.98
2023-09-20T21:23:31.376Z,2.65
2023-09-20T21:25:57.958Z,2.67
2023-09-20T21:28:24.486Z,3.00
2023-09-20T21:30:51.273Z,2.67
2023-09-20T21:33:18.449Z,2.08
2023-09-20T21:35:45.996Z,2.67
2023-09-20T21:38:13.147Z,2.65
2023-09-20T21:40:40.036Z,2.40
2023-09-20T21:43:08.719Z,1.85
2023-09-20T21:45:37.999Z,2.55
2023-09-20T21:48:05.104Z,2.88
2023-09-20T21:50:31.803Z,2.40
2023-09-20T21:52:59.132Z,2.13
2023-09-20T21:55:28.360Z,2.38
2023-09-20T21:57:55.229Z,2.47
2023-09-20T22:00:22.077Z,2.42
2023-09-20T22:02:56.078Z,2.22
2023-09-20T22:05:24.175Z,2.30
2023-09-20T22:08:04.515Z,2.35
2023-09-20T22:10:43.375Z,2.35
2023-09-20T22:13:10.823Z,2.30
2023-09-20T22:15:38.638Z,2.53
2023-09-20T22:18:12.782Z,2.90
2023-09-20T22:20:41.601Z,2.45
2023-09-20T22:23:10.920Z,2.20
2023-09-20T22:25:37.484Z,2.70
2023-09-20T22:28:04.538Z,2.65
2023-09-20T22:30:31.521Z,2.85
2023-09-20T22:32:59.545Z,2.30
2023-09-20T22:35:28.662Z,2.30
2023-09-20T22:37:55.309Z,2.95
2023-09-20T22:40:23.542Z,2.40
2023-09-20T22:43:01.625Z,2.55
2023-09-20T22:45:28.591Z,2.53
2023-09-20T22:47:59.711Z,2.80
2023-09-20T22:50:30.069Z,2.30
2023-09-20T22:53:14.968Z,2.60
2023-09-20T22:55:42.637Z,2.30
2023-09-20T22:58:19.018Z,2.13
2023-09-20T23:00:47.409Z,2.50
2023-09-20T23:03:18.010Z,2.75
2023-09-20T23:05:46.674Z,2.67
2023-09-20T23:08:15.425Z,2.05
2023-09-20T23:10:45.881Z,2.15
2023-09-20T23:13:25.208Z,2.20
2023-09-20T23:15:54.165Z,2.47
2023-09-20T23:18:23.517Z,2.05
2023-09-20T23:20:55.298Z,2.42
2023-09-20T23:23:28.207Z,2.05
2023-09-20T23:25:59.826Z,2.20
2023-09-20T23:28:26.635Z,2.42
2023-09-20T23:30:59.076Z,2.20
2023-09-20T23:33:29.046Z,2.47
2023-09-20T23:36:00.474Z,2.53
2023-09-20T23:41:18.452Z,2.20
2023-09-20T23:43:46.314Z,2.40
2023-09-20T23:46:26.805Z,2.17
2023-09-20T23:48:54.329Z,2.53
2023-09-20T23:51:21.788Z,2.60
2023-09-20T23:53:50.762Z,2.63
2023-09-20T23:56:18.158Z,2.33
2023-09-20T23:58:46.031Z,2.58
